Terminal Aerodrome Forecast
Issued by NWS

Home | Current Version | Previous Version | Graphics & Text | Print | Product List | Glossary On
Versions: 1 2 3 4 5 6 7 8 9 10 11 12 13 14 15 16 17 18 19 20 21
000
FTUS43 KMPX 220133 AAA
TAFAXN
TAF AMD
KAXN 220133Z 2202/2224 06013KT P6SM VCSH SCT025 OVC050
      TEMPO 2202/2204 4SM TSRA BR BKN025CB
     FM220400 06011KT P6SM VCSH OVC035
     FM220700 06010KT P6SM OVC015
     FM221100 05011KT P6SM OVC007
     FM222000 05009KT P6SM OVC020=

USA.gov is the U.S. government's official web portal to all federal, state and local government web resources and services.